createdAt,value
2018-05-26T00:01:10.906Z,53.98
2018-05-26T00:03:38.535Z,53.46
2018-05-26T00:06:06.130Z,53.24
2018-05-26T00:08:33.804Z,53.18
2018-05-26T00:11:01.452Z,53.48
2018-05-26T00:13:29.012Z,54.03
2018-05-26T00:15:56.851Z,53.42
2018-05-26T00:18:24.421Z,54.12
2018-05-26T00:20:52.045Z,53.85
2018-05-26T00:23:19.752Z,53.83
2018-05-26T00:25:47.375Z,54.02
2018-05-26T00:28:14.957Z,53.76
2018-05-26T00:30:42.683Z,53.52
2018-05-26T00:33:10.261Z,54.04
2018-05-26T00:35:37.828Z,54.22
2018-05-26T00:38:05.465Z,54.41
2018-05-26T00:40:33.038Z,54.31
2018-05-26T00:43:00.616Z,53.45
2018-05-26T00:45:28.257Z,54.87
2018-05-26T00:47:55.829Z,57.56
2018-05-26T00:50:23.396Z,57.49
2018-05-26T00:52:51.020Z,59.72
2018-05-26T00:55:18.694Z,59.82
2018-05-26T00:57:46.309Z,59.81
2018-05-26T01:00:14.026Z,60.57
2018-05-26T01:02:41.592Z,61.00
2018-05-26T01:05:09.227Z,61.96
2018-05-26T01:07:37.104Z,62.25
2018-05-26T01:10:04.725Z,62.87
2018-05-26T01:12:32.310Z,63.03
2018-05-26T01:15:00.028Z,63.70
2018-05-26T01:17:27.608Z,63.71
2018-05-26T01:19:55.211Z,64.59
2018-05-26T01:22:22.918Z,65.22
2018-05-26T01:24:50.500Z,65.32
2018-05-26T01:27:18.174Z,65.72
2018-05-26T01:29:45.799Z,66.03
2018-05-26T01:32:13.428Z,66.03
2018-05-26T01:34:41.023Z,66.05
2018-05-26T01:37:08.700Z,66.42
2018-05-26T01:39:36.348Z,66.35
2018-05-26T01:42:03.919Z,66.07
2018-05-26T01:44:32.467Z,66.89
2018-05-26T01:47:00.083Z,66.70
2018-05-26T01:49:27.660Z,66.99
2018-05-26T01:51:55.379Z,67.05
2018-05-26T01:54:22.953Z,66.84
2018-05-26T01:56:50.585Z,67.81
2018-05-26T01:59:18.261Z,67.39
2018-05-26T02:01:45.891Z,67.96
2018-05-26T02:04:13.471Z,68.55
2018-05-26T02:06:41.110Z,68.39
2018-05-26T02:09:08.677Z,67.61
2018-05-26T02:11:36.256Z,66.87
2018-05-26T02:14:04.675Z,67.92
2018-05-26T02:16:32.235Z,68.44
2018-05-26T02:18:59.856Z,68.35
2018-05-26T02:21:27.599Z,68.14
2018-05-26T02:23:55.183Z,67.38
2018-05-26T02:26:22.806Z,68.01
2018-05-26T02:28:51.361Z,66.80
2018-05-26T02:31:18.928Z,66.65
2018-05-26T02:33:46.569Z,67.44
2018-05-26T02:36:14.192Z,67.15
2018-05-26T02:38:41.761Z,66.86
2018-05-26T02:41:09.348Z,67.01
2018-05-26T02:43:37.065Z,66.76
2018-05-26T02:46:04.674Z,66.49
2018-05-26T02:48:32.252Z,66.06
2018-05-26T02:50:59.985Z,65.06
2018-05-26T02:53:27.565Z,64.95
2018-05-26T02:55:55.202Z,63.59
2018-05-26T02:58:23.404Z,63.35
2018-05-26T03:00:51.000Z,62.81
2018-05-26T03:03:18.640Z,62.43
2018-05-26T03:05:52.080Z,61.29
2018-05-26T03:08:25.557Z,60.89
2018-05-26T03:10:59.824Z,61.12
2018-05-26T03:13:32.952Z,60.90
2018-05-26T03:16:18.486Z,60.45
2018-05-26T03:18:46.744Z,60.09
2018-05-26T03:21:14.318Z,59.96
2018-05-26T03:23:41.956Z,60.24
2018-05-26T03:26:09.537Z,59.62
2018-05-26T03:28:37.126Z,59.95
2018-05-26T03:31:05.789Z,59.88
2018-05-26T03:33:33.373Z,60.07
2018-05-26T03:36:00.960Z,59.89
2018-05-26T03:38:28.667Z,59.82
2018-05-26T03:40:56.317Z,60.02
2018-05-26T03:43:23.961Z,59.54
2018-05-26T03:45:51.607Z,59.50
2018-05-26T03:48:19.233Z,59.96
2018-05-26T03:50:46.811Z,59.83
2018-05-26T03:53:14.761Z,59.43
2018-05-26T03:55:54.195Z,59.57
2018-05-26T03:58:33.633Z,59.63
2018-05-26T04:01:01.269Z,59.54
2018-05-26T04:03:28.855Z,59.47
2018-05-26T04:05:56.515Z,58.62
2018-05-26T04:08:24.092Z,59.03
2018-05-26T04:10:52.463Z,59.11
2018-05-26T04:13:20.177Z,58.58
2018-05-26T04:15:47.849Z,58.59
2018-05-26T04:18:15.425Z,58.47
2018-05-26T04:20:43.294Z,58.54
2018-05-26T04:23:11.408Z,58.32
2018-05-26T04:25:39.038Z,58.27
2018-05-26T04:28:06.717Z,58.35
2018-05-26T04:30:34.283Z,57.83
2018-05-26T04:33:01.908Z,57.53
2018-05-26T04:35:29.747Z,56.42
2018-05-26T04:37:57.367Z,55.98
2018-05-26T04:40:25.008Z,56.66
2018-05-26T04:42:52.809Z,55.75
2018-05-26T04:45:20.388Z,55.73
2018-05-26T04:47:47.965Z,55.07
2018-05-26T04:50:15.753Z,54.79
2018-05-26T04:52:43.323Z,55.29
2018-05-26T04:55:10.976Z,54.32
2018-05-26T04:57:38.678Z,52.67
2018-05-26T05:00:06.322Z,53.53
2018-05-26T05:02:33.963Z,53.92
2018-05-26T05:05:01.581Z,52.97
2018-05-26T05:07:29.168Z,52.64
2018-05-26T05:09:57.173Z,53.06
2018-05-26T05:12:24.794Z,52.70
2018-05-26T05:14:52.387Z,51.77
2018-05-26T05:17:20.952Z,50.88
2018-05-26T05:19:48.579Z,51.38
2018-05-26T05:22:16.222Z,51.63
2018-05-26T05:24:43.791Z,51.50
2018-05-26T05:27:11.630Z,50.13
2018-05-26T05:29:39.212Z,49.82
2018-05-26T05:32:06.803Z,51.84
2018-05-26T05:34:34.549Z,52.19
2018-05-26T05:37:02.196Z,53.08
2018-05-26T05:39:29.774Z,53.28
2018-05-26T05:41:57.507Z,54.14
2018-05-26T05:44:25.083Z,54.50
2018-05-26T05:46:52.677Z,55.53
2018-05-26T05:49:20.506Z,56.75
2018-05-26T05:51:48.116Z,55.25
2018-05-26T05:54:15.692Z,54.55
2018-05-26T05:56:43.400Z,53.98
2018-05-26T05:59:10.976Z,54.80
2018-05-26T06:01:38.550Z,55.11
2018-05-26T06:04:06.284Z,54.74
2018-05-26T06:06:33.870Z,54.09
2018-05-26T06:09:01.436Z,53.99
2018-05-26T06:11:29.166Z,55.99
2018-05-26T06:13:56.798Z,54.29
2018-05-26T06:16:24.445Z,51.69
2018-05-26T06:18:52.132Z,52.34
2018-05-26T06:21:19.701Z,51.37
2018-05-26T06:23:47.361Z,49.65
2018-05-26T06:26:15.004Z,50.62
2018-05-26T06:28:42.658Z,48.76
2018-05-26T06:31:10.233Z,48.46
2018-05-26T06:33:37.853Z,48.12
2018-05-26T06:36:05.446Z,48.30
2018-05-26T06:38:33.075Z,50.05
2018-05-26T06:41:00.794Z,50.24
2018-05-26T06:43:28.362Z,49.85
2018-05-26T06:45:55.952Z,48.77
2018-05-26T06:48:23.625Z,47.03
2018-05-26T06:50:51.222Z,47.09
2018-05-26T06:53:18.855Z,48.63
2018-05-26T06:55:46.648Z,47.25
2018-05-26T06:58:14.227Z,47.56
2018-05-26T07:00:41.867Z,47.13
2018-05-26T07:03:09.624Z,46.48
2018-05-26T07:05:37.265Z,46.46
2018-05-26T07:08:04.848Z,44.99
2018-05-26T07:10:32.551Z,47.06
2018-05-26T07:13:00.116Z,44.87
2018-05-26T07:15:27.684Z,44.42
2018-05-26T07:17:55.307Z,43.02
2018-05-26T07:20:22.888Z,43.35
2018-05-26T07:22:50.481Z,44.44
2018-05-26T07:25:18.163Z,43.60
2018-05-26T07:27:45.800Z,43.49
2018-05-26T07:30:13.395Z,43.03
2018-05-26T07:32:41.134Z,43.50
2018-05-26T07:35:08.725Z,41.99
2018-05-26T07:37:37.658Z,41.87
2018-05-26T07:40:05.307Z,43.18
2018-05-26T07:42:33.448Z,43.15
2018-05-26T07:45:01.020Z,45.07
2018-05-26T07:47:28.806Z,46.21
2018-05-26T07:49:56.402Z,46.20
2018-05-26T07:52:23.992Z,45.46
2018-05-26T07:54:51.655Z,45.51
2018-05-26T07:57:19.230Z,46.74
2018-05-26T07:59:46.844Z,46.89
2018-05-26T08:02:14.472Z,45.40
2018-05-26T08:04:42.044Z,44.93
2018-05-26T08:07:09.643Z,45.65
2018-05-26T08:09:37.260Z,48.21
2018-05-26T08:12:05.455Z,43.73
2018-05-26T08:14:33.033Z,44.08
2018-05-26T08:17:00.681Z,43.57
2018-05-26T08:19:28.252Z,46.38
2018-05-26T08:21:55.815Z,44.83
2018-05-26T08:24:23.965Z,44.39
2018-05-26T08:26:51.545Z,44.15
2018-05-26T08:29:19.118Z,43.87
2018-05-26T08:31:46.748Z,42.88
2018-05-26T08:34:16.498Z,41.74
2018-05-26T08:36:44.075Z,42.77
2018-05-26T08:39:13.401Z,39.88
2018-05-26T08:41:43.829Z,41.63
2018-05-26T08:44:11.397Z,40.98
2018-05-26T08:46:39.020Z,41.58
2018-05-26T08:49:06.628Z,42.19
2018-05-26T08:51:34.220Z,37.29
2018-05-26T08:54:03.475Z,37.71
2018-05-26T08:56:31.672Z,38.49
2018-05-26T08:58:59.244Z,38.67
2018-05-26T09:01:28.727Z,36.94
2018-05-26T09:03:56.353Z,36.45
2018-05-26T09:06:23.960Z,35.73
2018-05-26T09:08:52.052Z,35.67
2018-05-26T09:11:19.667Z,36.20
2018-05-26T09:13:47.281Z,36.96
2018-05-26T09:16:14.899Z,35.55
2018-05-26T09:18:42.515Z,37.03
2018-05-26T09:21:10.071Z,37.16
2018-05-26T09:23:37.712Z,36.45
2018-05-26T09:26:05.308Z,36.50
2018-05-26T09:28:32.877Z,34.21
2018-05-26T09:31:00.597Z,35.39
2018-05-26T09:33:28.170Z,32.28
2018-05-26T09:35:55.744Z,35.39
2018-05-26T09:38:23.471Z,34.82
2018-05-26T09:40:51.068Z,35.09
2018-05-26T09:43:19.449Z,34.31
2018-05-26T09:45:47.159Z,35.57
2018-05-26T09:48:14.725Z,35.12
2018-05-26T09:50:42.309Z,35.67
2018-05-26T09:53:09.918Z,34.70
2018-05-26T09:55:37.492Z,33.05
2018-05-26T09:58:05.069Z,33.59
2018-05-26T10:00:32.704Z,33.44
2018-05-26T10:03:00.272Z,34.22
2018-05-26T10:05:27.854Z,33.63
2018-05-26T10:07:55.511Z,32.65
2018-05-26T10:10:23.098Z,32.99
2018-05-26T10:12:51.816Z,33.41
2018-05-26T10:15:20.303Z,32.47
2018-05-26T10:17:49.098Z,34.17
2018-05-26T10:20:16.688Z,33.83
2018-05-26T10:22:46.713Z,32.83
2018-05-26T10:25:14.279Z,33.33
2018-05-26T10:27:41.860Z,35.61
2018-05-26T10:30:10.272Z,36.35
2018-05-26T10:32:37.907Z,36.49
2018-05-26T10:35:05.485Z,33.89
2018-05-26T10:37:33.121Z,34.24
2018-05-26T10:40:00.706Z,35.45
2018-05-26T10:42:28.323Z,34.96
2018-05-26T10:44:55.952Z,34.47
2018-05-26T10:47:23.539Z,34.51
2018-05-26T10:49:51.155Z,34.68
2018-05-26T10:52:18.903Z,33.54
2018-05-26T10:54:46.485Z,35.19
2018-05-26T10:57:14.068Z,33.25
2018-05-26T10:59:41.696Z,31.41
2018-05-26T11:02:09.311Z,31.99
2018-05-26T11:04:36.891Z,32.99
2018-05-26T11:07:04.501Z,34.82
2018-05-26T11:09:32.091Z,33.25
2018-05-26T11:11:59.663Z,33.01
2018-05-26T11:14:27.299Z,32.69
2018-05-26T11:16:54.919Z,32.31
2018-05-26T11:19:22.495Z,30.79
2018-05-26T11:21:50.215Z,32.75
2018-05-26T11:24:17.823Z,33.40
2018-05-26T11:26:45.434Z,33.01
2018-05-26T11:29:13.924Z,31.27
2018-05-26T11:31:41.490Z,33.42
2018-05-26T11:34:09.064Z,31.90
2018-05-26T11:36:36.699Z,30.25
2018-05-26T11:39:04.353Z,30.72
2018-05-26T11:41:31.931Z,32.95
2018-05-26T11:43:59.601Z,32.70
2018-05-26T11:46:27.184Z,28.43
2018-05-26T11:48:55.709Z,29.89
2018-05-26T11:51:23.336Z,31.23
2018-05-26T11:53:50.903Z,32.85
2018-05-26T11:56:18.609Z,30.49
2018-05-26T11:58:46.252Z,30.92
2018-05-26T12:01:13.828Z,31.23
2018-05-26T12:03:41.417Z,31.50
2018-05-26T12:06:09.151Z,31.42
2018-05-26T12:08:37.309Z,30.38
2018-05-26T12:11:04.944Z,32.24
2018-05-26T12:13:33.564Z,32.50
2018-05-26T12:16:01.152Z,32.66
2018-05-26T12:18:28.749Z,31.15
2018-05-26T12:20:56.465Z,31.95
2018-05-26T12:23:24.048Z,31.23
2018-05-26T12:25:51.675Z,32.05
2018-05-26T12:28:19.298Z,31.93
2018-05-26T12:30:46.872Z,32.23
2018-05-26T12:33:15.180Z,33.19
2018-05-26T12:35:42.796Z,33.10
2018-05-26T12:38:10.455Z,33.89
2018-05-26T12:40:38.048Z,31.84
2018-05-26T12:43:05.781Z,32.89
2018-05-26T12:45:34.031Z,32.97
2018-05-26T12:48:01.621Z,33.98
2018-05-26T12:50:29.352Z,35.24
2018-05-26T12:52:56.927Z,35.06
2018-05-26T12:55:24.497Z,34.65
2018-05-26T12:57:52.141Z,33.41
2018-05-26T13:00:19.711Z,34.30
2018-05-26T13:02:47.291Z,34.23
2018-05-26T13:05:14.916Z,35.47
2018-05-26T13:07:42.491Z,35.80
2018-05-26T13:10:10.066Z,36.82
2018-05-26T13:12:37.685Z,35.30
2018-05-26T13:15:05.269Z,36.55
2018-05-26T13:17:32.834Z,37.05
2018-05-26T13:20:00.452Z,37.53
2018-05-26T13:22:28.020Z,36.60
2018-05-26T13:24:55.593Z,36.79
2018-05-26T13:27:23.315Z,34.73
2018-05-26T13:29:50.898Z,35.44
2018-05-26T13:32:18.475Z,36.57
2018-05-26T13:34:46.132Z,36.88
2018-05-26T13:37:13.705Z,38.43
2018-05-26T13:39:41.283Z,37.56
2018-05-26T13:42:08.996Z,37.87
2018-05-26T13:44:36.572Z,39.46
2018-05-26T13:47:04.696Z,38.65
2018-05-26T13:49:32.332Z,38.63
2018-05-26T13:51:59.920Z,37.60
2018-05-26T13:54:28.998Z,37.23
2018-05-26T13:56:56.735Z,37.48
2018-05-26T13:59:24.328Z,37.09
2018-05-26T14:01:51.946Z,36.71
2018-05-26T14:04:19.662Z,36.80
2018-05-26T14:06:47.231Z,36.60
2018-05-26T14:09:15.367Z,37.97
2018-05-26T14:11:42.995Z,36.27
2018-05-26T14:14:10.583Z,38.11
2018-05-26T14:16:38.156Z,37.39
2018-05-26T14:19:05.788Z,37.91
2018-05-26T14:21:33.369Z,39.00
2018-05-26T14:24:00.952Z,38.43
2018-05-26T14:26:28.581Z,39.44
2018-05-26T14:28:56.173Z,39.56
2018-05-26T14:31:23.764Z,39.67
2018-05-26T14:33:51.415Z,40.83
2018-05-26T14:36:19.022Z,40.79
2018-05-26T14:38:46.617Z,40.66
2018-05-26T14:41:14.236Z,40.55
2018-05-26T14:43:41.813Z,40.25
2018-05-26T14:46:09.381Z,40.32
2018-05-26T14:48:37.017Z,39.39
2018-05-26T14:51:04.591Z,39.99
2018-05-26T14:53:32.166Z,38.46
2018-05-26T14:56:00.680Z,39.26
2018-05-26T14:58:28.261Z,45.63
2018-05-26T15:00:55.905Z,47.88
2018-05-26T15:03:23.532Z,48.95
2018-05-26T15:05:51.116Z,49.57
2018-05-26T15:08:19.328Z,49.04
2018-05-26T15:10:47.057Z,49.67
2018-05-26T15:13:14.749Z,50.27
2018-05-26T15:15:42.377Z,50.25
2018-05-26T15:18:11.696Z,49.94
2018-05-26T15:20:39.311Z,50.19
2018-05-26T15:23:06.954Z,50.35
2018-05-26T15:25:34.685Z,50.26
2018-05-26T15:28:02.287Z,50.45
2018-05-26T15:30:29.881Z,50.72
2018-05-26T15:32:57.501Z,50.96
2018-05-26T15:35:25.081Z,51.30
2018-05-26T15:37:52.661Z,51.63
2018-05-26T15:40:20.393Z,52.34
2018-05-26T15:42:47.974Z,52.37
2018-05-26T15:45:15.544Z,51.73
2018-05-26T15:47:43.275Z,52.10
2018-05-26T15:50:11.393Z,51.84
2018-05-26T15:52:38.956Z,51.81
2018-05-26T15:55:06.767Z,51.41
2018-05-26T15:57:34.351Z,52.23
2018-05-26T16:00:02.813Z,52.47
2018-05-26T16:02:30.435Z,50.71
2018-05-26T16:04:58.019Z,51.17
2018-05-26T16:07:25.595Z,50.69
2018-05-26T16:09:53.228Z,50.13
2018-05-26T16:12:20.818Z,51.33
2018-05-26T16:14:48.432Z,51.22
2018-05-26T16:17:16.052Z,49.80
2018-05-26T16:19:43.628Z,51.00
2018-05-26T16:22:12.021Z,51.47
2018-05-26T16:24:39.646Z,52.19
2018-05-26T16:27:07.228Z,51.04
2018-05-26T16:29:34.808Z,50.67
2018-05-26T16:32:02.524Z,50.11
2018-05-26T16:34:30.104Z,51.76
2018-05-26T16:36:57.681Z,50.91
2018-05-26T16:39:25.321Z,50.96
2018-05-26T16:41:52.892Z,50.77
2018-05-26T16:44:20.463Z,51.21
2018-05-26T16:46:48.781Z,52.09
2018-05-26T16:49:16.356Z,51.97
2018-05-26T16:51:44.393Z,52.71
2018-05-26T16:54:12.022Z,53.34
2018-05-26T16:56:39.611Z,52.40
2018-05-26T16:59:07.222Z,52.57
2018-05-26T17:01:35.053Z,52.47
2018-05-26T17:04:02.646Z,53.13
2018-05-26T17:06:30.224Z,52.85
2018-05-26T17:08:58.180Z,53.48
2018-05-26T17:11:25.761Z,53.45
2018-05-26T17:13:53.348Z,52.83
2018-05-26T17:16:21.001Z,52.66
2018-05-26T17:18:48.599Z,53.04
2018-05-26T17:21:16.184Z,52.30
2018-05-26T17:23:44.588Z,52.81
2018-05-26T17:26:12.165Z,53.10
2018-05-26T17:28:39.772Z,53.37
2018-05-26T17:31:07.404Z,53.48
2018-05-26T17:33:35.044Z,54.93
2018-05-26T17:36:02.662Z,55.75
2018-05-26T17:38:30.388Z,56.11
2018-05-26T17:40:57.975Z,56.72
2018-05-26T17:43:25.567Z,57.38
2018-05-26T17:45:53.225Z,57.34
2018-05-26T17:48:20.843Z,57.39
2018-05-26T17:50:48.445Z,58.09
2018-05-26T17:53:16.187Z,58.60
2018-05-26T17:55:43.886Z,58.31
2018-05-26T17:58:11.476Z,59.09
2018-05-26T18:00:39.093Z,59.62
2018-05-26T18:03:06.674Z,59.58
2018-05-26T18:05:34.279Z,59.25
2018-05-26T18:08:01.932Z,59.62
2018-05-26T18:10:29.524Z,60.20
2018-05-26T18:12:57.115Z,60.62
2018-05-26T18:15:24.866Z,60.77
2018-05-26T18:17:52.456Z,61.72
2018-05-26T18:20:20.102Z,62.04
2018-05-26T18:22:47.862Z,61.71
2018-05-26T18:25:15.473Z,61.55
2018-05-26T18:27:43.062Z,62.06
2018-05-26T18:30:10.731Z,62.09
2018-05-26T18:32:38.340Z,62.93
2018-05-26T18:35:05.945Z,63.04
2018-05-26T18:37:33.624Z,63.65
2018-05-26T18:40:01.217Z,63.71
2018-05-26T18:42:28.816Z,64.04
2018-05-26T18:44:57.011Z,64.14
2018-05-26T18:47:24.641Z,63.48
2018-05-26T18:49:52.234Z,63.66
2018-05-26T18:52:19.868Z,63.48
2018-05-26T18:54:48.503Z,62.51
2018-05-26T18:57:16.191Z,63.08
2018-05-26T18:59:44.017Z,62.89
2018-05-26T19:02:11.641Z,62.70
2018-05-26T19:04:40.514Z,63.12
2018-05-26T19:07:08.275Z,61.90
2018-05-26T19:09:35.953Z,62.26
2018-05-26T19:12:03.671Z,61.87
2018-05-26T19:14:32.687Z,63.06
2018-05-26T19:17:00.433Z,63.34
2018-05-26T19:19:28.175Z,62.85
2018-05-26T19:21:55.893Z,62.58
2018-05-26T19:24:23.564Z,63.10
2018-05-26T19:26:51.238Z,62.79
2018-05-26T19:29:19.087Z,62.96
2018-05-26T19:31:47.704Z,62.92
2018-05-26T19:34:15.359Z,62.75
2018-05-26T19:36:43.216Z,63.07
2018-05-26T19:39:10.819Z,62.65
2018-05-26T19:41:38.498Z,62.04
2018-05-26T19:44:06.371Z,62.02
2018-05-26T19:46:34.068Z,62.27
2018-05-26T19:49:01.789Z,61.19
2018-05-26T19:51:29.563Z,61.55
2018-05-26T19:53:57.255Z,62.21
2018-05-26T19:56:24.997Z,64.08
2018-05-26T19:58:52.714Z,65.08
2018-05-26T20:01:20.414Z,64.91
2018-05-26T20:03:48.140Z,65.63
2018-05-26T20:06:15.930Z,66.40
2018-05-26T20:08:43.647Z,66.17
2018-05-26T20:11:11.369Z,67.91
2018-05-26T20:13:39.057Z,66.95
2018-05-26T20:16:06.693Z,67.87
2018-05-26T20:18:34.370Z,68.14
2018-05-26T20:21:02.168Z,67.63
2018-05-26T20:23:29.873Z,67.15
2018-05-26T20:25:57.519Z,67.64
2018-05-26T20:28:25.215Z,68.56
2018-05-26T20:30:52.908Z,68.52
2018-05-26T20:33:20.516Z,68.58
2018-05-26T20:35:48.245Z,67.98
2018-05-26T20:38:15.894Z,68.07
2018-05-26T20:40:43.564Z,68.60
2018-05-26T20:43:11.326Z,69.16
2018-05-26T20:45:38.950Z,70.02
2018-05-26T20:48:06.576Z,70.54
2018-05-26T20:50:34.355Z,69.12
2018-05-26T20:53:01.936Z,68.89
2018-05-26T20:55:29.525Z,69.07
2018-05-26T20:57:57.168Z,69.05
2018-05-26T21:00:24.766Z,68.42
2018-05-26T21:02:52.375Z,69.00
2018-05-26T21:05:20.001Z,69.04
2018-05-26T21:07:47.579Z,68.48
2018-05-26T21:10:15.204Z,68.29
2018-05-26T21:12:42.829Z,68.56
2018-05-26T21:15:10.480Z,68.29
2018-05-26T21:17:38.068Z,68.12
2018-05-26T21:20:05.903Z,68.20
2018-05-26T21:22:33.476Z,67.45
2018-05-26T21:25:01.044Z,67.98
2018-05-26T21:27:28.783Z,68.85
2018-05-26T21:29:56.361Z,68.44
2018-05-26T21:32:23.951Z,68.26
2018-05-26T21:34:51.602Z,67.38
2018-05-26T21:37:19.171Z,66.97
2018-05-26T21:39:46.749Z,66.93
2018-05-26T21:42:14.372Z,66.77
2018-05-26T21:44:41.948Z,65.79
2018-05-26T21:47:09.545Z,65.47
2018-05-26T21:49:37.541Z,65.09
2018-05-26T21:52:05.151Z,65.21
2018-05-26T21:54:32.728Z,65.22
2018-05-26T21:57:00.344Z,65.39
2018-05-26T21:59:28.083Z,65.46
2018-05-26T22:01:55.649Z,65.31
2018-05-26T22:04:23.368Z,65.69
2018-05-26T22:06:50.952Z,65.50
2018-05-26T22:09:18.533Z,65.53
2018-05-26T22:11:46.231Z,65.73
2018-05-26T22:14:13.808Z,65.14
2018-05-26T22:16:41.379Z,65.33
2018-05-26T22:19:09.019Z,65.41
2018-05-26T22:21:37.302Z,65.48
2018-05-26T22:24:04.875Z,65.23
2018-05-26T22:26:32.495Z,65.43
2018-05-26T22:29:00.059Z,65.25
2018-05-26T22:31:27.645Z,66.41
2018-05-26T22:33:55.275Z,65.64
2018-05-26T22:36:22.843Z,66.00
2018-05-26T22:38:50.767Z,66.64
2018-05-26T22:41:18.535Z,66.14
2018-05-26T22:43:46.123Z,66.41
2018-05-26T22:46:13.710Z,65.84
2018-05-26T22:48:41.344Z,65.98
2018-05-26T22:51:08.926Z,65.61
2018-05-26T22:53:36.553Z,65.65
2018-05-26T22:56:04.160Z,65.59
2018-05-26T22:58:31.749Z,65.52
2018-05-26T23:00:59.379Z,65.58
2018-05-26T23:03:27.139Z,65.05
2018-05-26T23:05:54.729Z,65.23
2018-05-26T23:08:22.300Z,65.14
2018-05-26T23:10:49.934Z,65.27
2018-05-26T23:13:17.515Z,65.16
2018-05-26T23:15:45.101Z,65.23
2018-05-26T23:18:12.819Z,65.29
2018-05-26T23:20:40.389Z,64.94
2018-05-26T23:23:07.963Z,65.27
2018-05-26T23:25:35.676Z,64.92
2018-05-26T23:28:03.272Z,65.06
2018-05-26T23:30:30.838Z,65.19
2018-05-26T23:32:58.467Z,65.01
2018-05-26T23:35:26.044Z,65.22
2018-05-26T23:37:53.625Z,65.29
2018-05-26T23:40:21.348Z,65.28
2018-05-26T23:42:48.929Z,64.80
2018-05-26T23:45:16.503Z,65.81
2018-05-26T23:47:44.221Z,66.16
2018-05-26T23:50:11.834Z,66.01
2018-05-26T23:52:39.413Z,65.87
2018-05-26T23:55:07.126Z,66.11
2018-05-26T23:57:34.736Z,66.13
